createdAt,value
2019-01-17T00:07:47.818Z,5.50
2019-01-17T01:04:24.268Z,5.60
2019-01-17T01:08:44.418Z,5.60
2019-01-17T01:12:59.027Z,5.60
2019-01-17T01:17:31.320Z,5.50
2019-01-17T01:21:53.038Z,5.40
2019-01-17T01:26:15.066Z,5.30
2019-01-17T01:34:46.402Z,5.20
2019-01-17T01:39:12.532Z,5.20
2019-01-17T01:43:31.952Z,5.20
2019-01-17T01:56:32.692Z,5.10
2019-01-17T02:00:36.618Z,5.10
2019-01-17T02:08:44.227Z,5.00
2019-01-17T02:16:51.728Z,5.10
2019-01-17T02:33:05.840Z,5.10
2019-01-17T02:53:23.363Z,4.80
2019-01-17T02:57:46.355Z,4.80
2019-01-17T03:46:27.910Z,4.50
2019-01-17T04:02:41.580Z,4.40
2019-01-17T04:10:48.752Z,4.40
2019-01-17T04:14:52.494Z,4.50
2019-01-17T04:22:59.594Z,4.40
2019-01-17T04:27:03.324Z,4.40
2019-01-17T04:43:17.702Z,4.30
2019-01-17T04:59:31.338Z,4.40
2019-01-17T05:03:35.074Z,4.30
2019-01-17T05:31:59.694Z,4.00
2019-01-17T05:40:10.618Z,4.00
2019-01-17T05:48:17.655Z,4.00
2019-01-17T06:00:27.990Z,4.00
2019-01-17T06:24:48.825Z,4.20
2019-01-17T06:28:52.562Z,4.30
2019-01-17T06:36:59.610Z,4.30
2019-01-17T06:41:03.443Z,4.30
2019-01-17T07:05:24.830Z,4.70
2019-01-17T07:09:28.546Z,4.70
2019-01-17T07:13:32.634Z,4.70
2019-01-17T07:21:39.734Z,4.70
2019-01-17T07:50:05.342Z,4.90
2019-01-17T07:54:09.091Z,4.80
2019-01-17T08:06:19.634Z,4.60
2019-01-17T08:30:40.283Z,5.00
2019-01-17T08:34:44.014Z,5.10
2019-01-17T08:42:52.342Z,5.20
2019-01-17T08:50:59.454Z,5.20
2019-01-17T09:15:21.863Z,5.30
2019-01-17T09:23:29.010Z,5.50
2019-01-17T09:27:32.756Z,5.50
2019-01-17T10:04:04.344Z,5.70
2019-01-17T10:08:08.271Z,5.60
2019-01-17T10:16:58.937Z,5.60
2019-01-17T10:51:53.095Z,5.30
2019-01-17T11:00:35.548Z,5.50
2019-01-17T11:09:27.479Z,5.80
2019-01-17T11:13:49.093Z,5.80
2019-01-17T11:31:37.390Z,5.60
2019-01-17T11:45:01.089Z,5.70
2019-01-17T12:02:57.191Z,6.10
2019-01-17T12:15:13.016Z,6.60
2019-01-17T12:23:20.595Z,8.30
2019-01-17T12:31:28.143Z,8.80
2019-01-17T12:59:52.852Z,5.20
2019-01-17T13:03:57.017Z,5.10
2019-01-17T13:08:00.806Z,5.00
2019-01-17T13:40:30.062Z,7.00
2019-01-17T13:44:33.850Z,7.40
2019-01-17T13:52:41.423Z,6.80
2019-01-17T13:56:45.357Z,6.10
2019-01-17T14:21:06.091Z,4.70
2019-01-17T14:25:10.258Z,4.40
2019-01-17T14:37:21.012Z,4.00
2019-01-17T14:53:35.033Z,3.90
2019-01-17T15:13:52.594Z,3.90
2019-01-17T15:46:21.754Z,3.50
2019-01-17T15:50:25.549Z,3.40
2019-01-17T15:58:32.590Z,3.20
2019-01-17T16:10:43.230Z,3.20
2019-01-17T16:26:57.028Z,3.30
2019-01-17T16:35:04.595Z,3.50
2019-01-17T16:39:09.782Z,3.50
2019-01-17T16:47:16.832Z,3.10
2019-01-17T16:59:28.704Z,2.60
2019-01-17T17:15:42.622Z,2.40
2019-01-17T17:19:46.337Z,2.30
2019-01-17T17:23:50.082Z,2.20
2019-01-17T17:31:58.838Z,2.10
2019-01-17T17:56:21.337Z,1.70
2019-01-17T18:12:38.706Z,1.50
2019-01-17T18:36:59.286Z,1.50
2019-01-17T18:45:08.306Z,1.50
2019-01-17T18:49:12.758Z,1.50
2019-01-17T18:53:16.735Z,1.60
2019-01-17T18:57:21.347Z,1.60
2019-01-17T19:01:25.159Z,1.70
2019-01-17T19:21:43.958Z,2.00
2019-01-17T19:25:48.067Z,2.10
2019-01-17T19:37:58.656Z,2.20
2019-01-17T19:42:02.578Z,2.80
2019-01-17T19:46:07.354Z,2.30
2019-01-17T19:50:18.490Z,2.40
2019-01-17T19:58:29.109Z,2.50
2019-01-17T20:06:35.823Z,2.50
2019-01-17T20:10:39.542Z,2.60
2019-01-17T20:18:46.577Z,2.50
2019-01-17T20:22:50.689Z,2.40
2019-01-17T20:26:54.420Z,2.40
2019-01-17T20:39:06.935Z,2.50
2019-01-17T20:43:10.726Z,2.60
2019-01-17T20:55:21.158Z,2.60
2019-01-17T21:03:28.794Z,2.50
2019-01-17T21:15:39.248Z,2.30
2019-01-17T21:31:53.178Z,2.60
2019-01-17T21:35:56.911Z,2.60
2019-01-17T21:44:04.600Z,2.50
2019-01-17T21:48:08.559Z,2.40
2019-01-17T21:52:12.370Z,2.50
2019-01-17T22:12:30.630Z,2.00
2019-01-17T22:20:38.006Z,1.80
2019-01-17T22:24:41.743Z,1.80
2019-01-17T22:28:45.518Z,1.80
2019-01-17T22:36:52.798Z,1.60
2019-01-17T22:53:06.686Z,1.30
2019-01-17T23:01:20.758Z,1.30
2019-01-17T23:09:28.054Z,1.30
2019-01-17T23:13:31.874Z,1.20
2019-01-17T23:21:38.966Z,1.10
2019-01-17T23:37:53.201Z,0.90
2019-01-17T23:41:56.914Z,0.80
